createdAt,value
2023-04-16T00:03:29.416Z,5.57
2023-04-16T00:08:35.744Z,6.40
2023-04-16T00:13:39.190Z,5.27
2023-04-16T00:18:43.408Z,5.97
2023-04-16T00:23:48.212Z,5.77
2023-04-16T00:28:51.633Z,6.83
2023-04-16T00:33:55.261Z,6.77
2023-04-16T00:39:00.132Z,6.00
2023-04-16T00:44:04.096Z,6.63
2023-04-16T00:49:07.944Z,6.17
2023-04-16T00:54:14.153Z,5.97
2023-04-16T00:59:18.084Z,6.90
2023-04-16T01:04:22.036Z,7.03
2023-04-16T01:09:27.098Z,6.40
2023-04-16T01:14:32.011Z,6.50
2023-04-16T01:19:36.411Z,6.57
2023-04-16T01:24:41.946Z,6.80
2023-04-16T01:29:47.309Z,7.33
2023-04-16T01:34:57.461Z,6.67
2023-04-16T01:40:02.795Z,6.57
2023-04-16T01:45:08.828Z,6.83
2023-04-16T01:50:12.933Z,5.40
2023-04-16T01:55:17.887Z,5.63
2023-04-16T02:00:21.816Z,6.47
2023-04-16T02:05:25.215Z,6.50
2023-04-16T02:10:30.784Z,5.97
2023-04-16T02:15:35.384Z,5.60
2023-04-16T02:20:41.891Z,6.30
2023-04-16T02:25:47.984Z,5.93
2023-04-16T02:30:52.881Z,5.70
2023-04-16T02:35:57.902Z,6.17
2023-04-16T02:41:02.903Z,6.43
2023-04-16T02:46:06.465Z,5.23
2023-04-16T02:51:10.388Z,5.43
2023-04-16T02:56:15.227Z,5.30
2023-04-16T03:01:19.190Z,5.30
2023-04-16T03:06:22.681Z,6.57
2023-04-16T03:11:27.505Z,5.60
2023-04-16T03:16:31.582Z,6.43
2023-04-16T03:21:35.339Z,5.50
2023-04-16T03:26:40.484Z,4.90
2023-04-16T03:31:44.162Z,6.53
2023-04-16T03:36:47.605Z,5.73
2023-04-16T03:41:52.617Z,6.90
2023-04-16T03:46:56.268Z,8.37
2023-04-16T03:52:00.280Z,7.87
2023-04-16T03:57:05.477Z,7.13
2023-04-16T04:02:09.958Z,11.50
2023-04-16T04:07:13.767Z,10.07
2023-04-16T04:12:19.067Z,9.80
2023-04-16T04:17:23.687Z,13.13
2023-04-16T04:22:27.931Z,12.90
2023-04-16T04:27:33.204Z,13.90
2023-04-16T04:32:36.968Z,14.67
2023-04-16T04:37:40.890Z,14.40
2023-04-16T04:42:52.565Z,11.53
2023-04-16T04:47:59.362Z,10.77
2023-04-16T04:53:04.723Z,10.13
2023-04-16T04:58:10.562Z,9.13
2023-04-16T05:03:22.008Z,10.87
2023-04-16T05:08:25.833Z,11.60
2023-04-16T05:13:30.966Z,9.90
2023-04-16T05:18:34.627Z,7.63
2023-04-16T05:23:38.432Z,7.20
2023-04-16T05:28:43.291Z,7.77
2023-04-16T05:33:46.758Z,8.13
2023-04-16T05:38:50.171Z,10.30
2023-04-16T05:43:55.390Z,10.43
2023-04-16T05:48:58.802Z,9.80
2023-04-16T05:54:02.244Z,8.07
2023-04-16T05:59:07.407Z,8.13
2023-04-16T06:04:11.361Z,8.90
2023-04-16T06:09:14.893Z,7.93
2023-04-16T06:14:19.823Z,7.17
2023-04-16T06:19:23.267Z,6.73
2023-04-16T06:24:26.710Z,7.17
2023-04-16T06:29:40.581Z,6.67
2023-04-16T06:34:44.653Z,6.90
2023-04-16T06:39:48.190Z,7.47
2023-04-16T06:44:53.171Z,7.17
2023-04-16T06:49:56.858Z,5.70
2023-04-16T06:55:00.700Z,5.53
2023-04-16T07:00:06.346Z,5.60
2023-04-16T07:05:10.207Z,5.30
2023-04-16T07:10:14.113Z,5.57
2023-04-16T07:15:19.343Z,5.93
2023-04-16T07:20:23.189Z,4.80
2023-04-16T07:25:26.979Z,5.40
2023-04-16T07:30:34.340Z,5.70
2023-04-16T07:35:37.786Z,6.67
2023-04-16T07:40:41.233Z,8.40
2023-04-16T07:45:46.391Z,8.13
2023-04-16T07:50:50.329Z,7.47
2023-04-16T07:55:53.837Z,8.00
2023-04-16T08:00:59.698Z,6.97
2023-04-16T08:06:03.636Z,5.67
2023-04-16T08:11:07.096Z,6.13
2023-04-16T08:16:12.302Z,5.82
2023-04-16T08:21:15.871Z,5.13
2023-04-16T08:26:19.608Z,4.67
2023-04-16T08:31:24.596Z,3.92
2023-04-16T08:36:28.324Z,4.25
2023-04-16T08:41:33.558Z,3.95
2023-04-16T08:46:39.514Z,4.10
2023-04-16T08:51:47.092Z,4.65
2023-04-16T08:56:52.435Z,5.30
2023-04-16T09:02:00.123Z,5.03
2023-04-16T09:07:06.222Z,4.32
2023-04-16T09:12:10.681Z,4.10
2023-04-16T09:17:16.967Z,3.90
2023-04-16T09:22:20.891Z,4.20
2023-04-16T09:27:26.075Z,4.40
2023-04-16T09:32:31.236Z,4.60
2023-04-16T09:37:34.978Z,3.80
2023-04-16T09:42:38.605Z,3.50
2023-04-16T09:47:45.318Z,3.38
2023-04-16T09:52:51.312Z,3.85
2023-04-16T09:58:01.237Z,3.65
2023-04-16T10:03:07.322Z,3.35
2023-04-16T10:08:14.946Z,3.38
2023-04-16T10:13:19.284Z,3.03
2023-04-16T10:18:24.504Z,3.20
2023-04-16T10:23:28.361Z,2.85
2023-04-16T10:28:32.267Z,2.50
2023-04-16T10:33:40.625Z,2.75
2023-04-16T10:38:48.452Z,2.80
2023-04-16T10:43:52.502Z,2.63
2023-04-16T10:49:01.837Z,2.70
2023-04-16T10:54:20.635Z,3.10
2023-04-16T10:59:25.167Z,2.85
2023-04-16T11:04:35.525Z,3.20
2023-04-16T11:10:05.531Z,2.67
2023-04-16T11:15:12.112Z,3.33
2023-04-16T11:20:20.914Z,3.58
2023-04-16T11:25:27.407Z,3.30
2023-04-16T11:30:33.362Z,3.30
2023-04-16T11:35:39.372Z,3.15
2023-04-16T11:40:43.982Z,3.47
2023-04-16T11:45:58.184Z,3.20
2023-04-16T11:51:03.398Z,3.38
2023-04-16T11:56:07.248Z,3.50
2023-04-16T12:01:11.642Z,3.97
2023-04-16T12:06:16.547Z,3.80
2023-04-16T12:11:20.051Z,4.32
2023-04-16T12:16:23.785Z,3.60
2023-04-16T12:21:38.055Z,3.63
2023-04-16T12:26:43.598Z,3.95
2023-04-16T12:31:47.580Z,3.80
2023-04-16T12:37:09.568Z,3.95
2023-04-16T12:42:12.983Z,3.10
2023-04-16T12:47:16.684Z,3.28
2023-04-16T12:52:23.807Z,4.10
2023-04-16T12:57:28.840Z,3.38
2023-04-16T13:02:32.584Z,3.10
2023-04-16T13:07:37.608Z,3.70
2023-04-16T13:12:41.111Z,3.42
2023-04-16T13:17:44.572Z,3.50
2023-04-16T13:22:49.362Z,3.28
2023-04-16T13:27:53.165Z,3.88
2023-04-16T13:32:57.059Z,3.97
2023-04-16T13:38:01.869Z,3.10
2023-04-16T13:43:07.622Z,3.50
2023-04-16T13:48:11.348Z,3.10
2023-04-16T13:53:16.413Z,3.85
2023-04-16T13:58:20.255Z,3.17
2023-04-16T14:03:23.826Z,3.75
2023-04-16T14:08:28.901Z,3.40
2023-04-16T14:13:32.510Z,3.55
2023-04-16T14:18:35.986Z,3.65
2023-04-16T14:23:41.207Z,3.67
2023-04-16T14:28:44.577Z,3.58
2023-04-16T14:33:48.017Z,4.95
2023-04-16T14:38:52.921Z,4.72
2023-04-16T14:43:56.359Z,4.95
2023-04-16T14:48:59.867Z,4.07
2023-04-16T14:54:04.837Z,4.60
2023-04-16T14:59:08.444Z,4.50
2023-04-16T15:04:12.448Z,5.50
2023-04-16T15:09:17.694Z,5.20
2023-04-16T15:14:21.185Z,5.10
2023-04-16T15:19:24.691Z,4.70
2023-04-16T15:24:29.629Z,5.90
2023-04-16T15:29:33.133Z,4.90
2023-04-16T15:34:36.671Z,5.30
2023-04-16T15:39:41.512Z,5.50
2023-04-16T15:44:45.011Z,5.07
2023-04-16T15:49:48.803Z,5.43
2023-04-16T15:54:53.840Z,5.47
2023-04-16T16:00:06.456Z,5.50
2023-04-16T16:05:11.993Z,5.20
2023-04-16T16:10:17.262Z,6.17
2023-04-16T16:15:21.699Z,5.80
2023-04-16T16:20:25.721Z,5.83
2023-04-16T16:25:30.575Z,5.97
2023-04-16T16:30:34.060Z,5.17
2023-04-16T16:35:37.477Z,5.87
2023-04-16T16:40:42.619Z,6.40
2023-04-16T16:45:46.595Z,6.17
2023-04-16T16:50:50.083Z,5.93
2023-04-16T16:55:55.394Z,6.87
2023-04-16T17:00:58.861Z,8.00
2023-04-16T17:06:02.593Z,7.87
2023-04-16T17:11:07.759Z,7.43
2023-04-16T17:16:11.459Z,6.97
2023-04-16T17:21:16.496Z,7.10
2023-04-16T17:26:22.511Z,7.73
2023-04-16T17:31:27.414Z,7.27
2023-04-16T17:36:31.472Z,7.17
2023-04-16T17:41:36.369Z,7.93
2023-04-16T17:46:39.788Z,9.00
2023-04-16T17:51:44.667Z,9.13
2023-04-16T17:56:49.888Z,10.07
2023-04-16T18:01:53.465Z,10.00
2023-04-16T18:06:57.203Z,10.80
2023-04-16T18:12:03.018Z,10.00
2023-04-16T18:17:06.831Z,10.30
2023-04-16T18:22:11.067Z,9.50
2023-04-16T18:27:15.838Z,10.50
2023-04-16T18:32:19.736Z,10.30
2023-04-16T18:37:23.693Z,9.67
2023-04-16T18:42:29.444Z,10.30
2023-04-16T18:47:34.734Z,8.70
2023-04-16T18:52:38.457Z,9.77
2023-04-16T18:57:44.003Z,9.10
2023-04-16T19:02:47.822Z,9.97
2023-04-16T19:07:51.772Z,9.30
2023-04-16T19:12:58.034Z,9.90
2023-04-16T19:18:02.141Z,9.87
2023-04-16T19:23:08.954Z,9.80
2023-04-16T19:28:14.916Z,10.90
2023-04-16T19:33:18.446Z,11.17
2023-04-16T19:38:22.109Z,10.47
2023-04-16T19:43:28.415Z,11.20
2023-04-16T19:48:33.825Z,11.63
2023-04-16T19:53:37.538Z,11.67
2023-04-16T19:58:42.335Z,12.13
2023-04-16T20:03:46.299Z,11.57
2023-04-16T20:08:49.867Z,10.83
2023-04-16T20:13:54.719Z,10.60
2023-04-16T20:19:03.623Z,9.50
2023-04-16T20:24:10.679Z,9.87
2023-04-16T20:29:15.826Z,10.20
2023-04-16T20:34:19.632Z,11.10
2023-04-16T20:39:23.296Z,10.97
2023-04-16T20:44:33.427Z,12.37
2023-04-16T20:49:38.399Z,11.33
2023-04-16T20:54:42.240Z,11.07
2023-04-16T20:59:47.206Z,11.27
2023-04-16T21:04:50.915Z,12.00
2023-04-16T21:09:54.512Z,11.10
2023-04-16T21:14:59.878Z,11.87
2023-04-16T21:20:03.741Z,11.77
2023-04-16T21:25:08.268Z,11.50
2023-04-16T21:30:14.883Z,9.73
2023-04-16T21:35:18.856Z,11.07
2023-04-16T21:40:23.944Z,10.30
2023-04-16T21:45:30.463Z,9.43
2023-04-16T21:50:34.065Z,10.40
2023-04-16T21:55:37.906Z,10.40
2023-04-16T22:00:42.790Z,10.30
2023-04-16T22:05:46.376Z,10.63
2023-04-16T22:10:50.281Z,11.03
2023-04-16T22:15:57.823Z,8.90
2023-04-16T22:21:01.662Z,10.00
2023-04-16T22:26:05.124Z,10.20
2023-04-16T22:31:10.324Z,9.07
2023-04-16T22:36:14.065Z,8.70
2023-04-16T22:41:17.851Z,9.20
2023-04-16T22:46:24.804Z,9.03
2023-04-16T22:51:29.057Z,9.47
2023-04-16T22:56:32.625Z,9.87
2023-04-16T23:01:37.587Z,9.20
2023-04-16T23:06:42.159Z,10.90
2023-04-16T23:11:45.873Z,9.63
2023-04-16T23:16:50.690Z,9.83
2023-04-16T23:21:54.392Z,12.53
2023-04-16T23:26:58.040Z,11.30
2023-04-16T23:32:03.185Z,11.97
2023-04-16T23:37:06.732Z,12.53
2023-04-16T23:42:10.231Z,11.83
2023-04-16T23:47:15.113Z,12.10
2023-04-16T23:52:18.579Z,11.93
2023-04-16T23:57:22.064Z,12.93
